createdAt,value
2023-01-27T00:00:47.212Z,99764.44
2023-01-27T00:03:17.860Z,99715.28
2023-01-27T00:05:48.839Z,99720.16
2023-01-27T00:08:20.051Z,99766.22
2023-01-27T00:11:12.114Z,99763.63
2023-01-27T00:13:41.407Z,99746.00
2023-01-27T00:16:12.236Z,99759.56
2023-01-27T00:18:42.685Z,99747.75
2023-01-27T00:21:30.008Z,99758.41
2023-01-27T00:24:17.145Z,99718.47
2023-01-27T00:26:49.488Z,99758.72
2023-01-27T00:29:19.926Z,99762.13
2023-01-27T00:32:07.163Z,99746.50
2023-01-27T00:34:37.783Z,99756.28
2023-01-27T00:37:08.526Z,99761.34
2023-01-27T00:39:39.161Z,99760.59
2023-01-27T00:42:11.925Z,99752.97
2023-01-27T00:45:03.387Z,99753.56
2023-01-27T00:47:34.824Z,99745.03
2023-01-27T00:50:05.360Z,99751.59
2023-01-27T00:52:38.571Z,99751.25
2023-01-27T00:55:11.642Z,99753.66
2023-01-27T00:57:43.748Z,99748.75
2023-01-27T01:00:16.968Z,99743.03
2023-01-27T01:02:47.691Z,99692.72
2023-01-27T01:05:18.354Z,99740.66
2023-01-27T01:07:48.937Z,99743.78
2023-01-27T01:10:19.899Z,99730.69
2023-01-27T01:12:52.093Z,99752.72
2023-01-27T01:15:22.632Z,99752.28
2023-01-27T01:17:53.239Z,99735.59
2023-01-27T01:20:24.902Z,99741.88
2023-01-27T01:22:55.470Z,99738.56
2023-01-27T01:25:26.010Z,99739.06
2023-01-27T01:27:58.182Z,99735.63
2023-01-27T01:30:28.783Z,99731.78
2023-01-27T01:32:59.982Z,99674.13
2023-01-27T01:35:31.333Z,99726.53
2023-01-27T01:38:01.921Z,99729.91
2023-01-27T01:40:32.436Z,99716.91
2023-01-27T01:43:06.511Z,99712.75
2023-01-27T01:45:52.940Z,99707.25
2023-01-27T01:48:31.533Z,99711.44
2023-01-27T01:51:07.147Z,99701.03
2023-01-27T01:53:43.350Z,99710.28
2023-01-27T01:56:19.621Z,99700.59
2023-01-27T01:58:52.468Z,99704.66
2023-01-27T02:01:25.606Z,99702.75
2023-01-27T02:04:01.602Z,99685.22
2023-01-27T02:06:32.380Z,99689.31
2023-01-27T02:09:02.927Z,99677.25
2023-01-27T02:11:33.472Z,99671.28
2023-01-27T02:14:06.218Z,99676.88
2023-01-27T02:16:36.732Z,99663.63
2023-01-27T02:19:08.517Z,99674.34
2023-01-27T02:21:39.156Z,99670.88
2023-01-27T02:24:13.236Z,99664.50
2023-01-27T02:26:46.773Z,99682.16
2023-01-27T02:29:18.434Z,99591.84
2023-01-27T02:31:49.049Z,99665.09
2023-01-27T02:34:23.807Z,99669.78
2023-01-27T02:36:58.679Z,99657.59
2023-01-27T02:39:34.958Z,99658.00
2023-01-27T02:42:08.660Z,99617.00
2023-01-27T02:44:39.342Z,99649.06
2023-01-27T02:47:10.325Z,99652.13
2023-01-27T02:49:40.737Z,99534.28
2023-01-27T02:52:11.726Z,99644.84
2023-01-27T02:54:42.243Z,99636.75
2023-01-27T02:57:14.328Z,99636.13
2023-01-27T02:59:44.906Z,99630.72
2023-01-27T03:02:15.757Z,99634.09
2023-01-27T03:04:46.285Z,99609.69
2023-01-27T03:07:16.821Z,99621.34
2023-01-27T03:09:47.508Z,99622.44
2023-01-27T03:12:22.303Z,99622.03
2023-01-27T03:15:11.227Z,99498.84
2023-01-27T03:17:58.910Z,99623.50
2023-01-27T03:20:29.493Z,99611.88
2023-01-27T03:23:00.049Z,99616.50
2023-01-27T03:25:30.706Z,99598.34
2023-01-27T03:28:02.941Z,99599.38
2023-01-27T03:30:33.892Z,99592.66
2023-01-27T03:33:04.915Z,99590.59
2023-01-27T03:35:39.735Z,99587.72
2023-01-27T03:38:32.196Z,99583.06
2023-01-27T03:41:19.660Z,99569.22
2023-01-27T03:44:08.918Z,99567.13
2023-01-27T03:46:42.512Z,99559.59
2023-01-27T03:49:13.073Z,99556.38
2023-01-27T03:51:43.521Z,99561.50
2023-01-27T03:54:13.919Z,99567.00
2023-01-27T03:56:44.360Z,99572.72
2023-01-27T03:59:16.436Z,99563.19
2023-01-27T04:01:47.083Z,99559.13
2023-01-27T04:04:34.436Z,99570.75
2023-01-27T04:07:04.851Z,99567.63
2023-01-27T04:09:37.049Z,99565.84
2023-01-27T04:12:08.857Z,99562.06
2023-01-27T04:14:42.907Z,99556.50
2023-01-27T04:17:14.875Z,99557.72
2023-01-27T04:19:45.525Z,99563.91
2023-01-27T04:22:16.728Z,99555.25
2023-01-27T04:24:50.973Z,99558.97
2023-01-27T04:27:21.574Z,99548.38
2023-01-27T04:29:53.679Z,99551.88
2023-01-27T04:32:24.200Z,99558.56
2023-01-27T04:34:57.429Z,99557.53
2023-01-27T04:37:27.863Z,99558.69
2023-01-27T04:39:58.383Z,99549.00
2023-01-27T04:42:28.817Z,99550.59
2023-01-27T04:45:00.855Z,99544.16
2023-01-27T04:47:31.323Z,99539.38
2023-01-27T04:50:01.791Z,99541.81
2023-01-27T04:52:32.267Z,99552.38
2023-01-27T04:55:02.730Z,99556.72
2023-01-27T04:57:33.247Z,99547.34
2023-01-27T05:00:06.943Z,99543.41
2023-01-27T05:02:37.445Z,99542.31
2023-01-27T05:05:08.685Z,99516.63
2023-01-27T05:07:39.228Z,99540.97
2023-01-27T05:10:10.825Z,99535.59
2023-01-27T05:12:41.263Z,99533.53
2023-01-27T05:15:14.127Z,99533.69
2023-01-27T05:17:44.696Z,99532.44
2023-01-27T05:20:18.628Z,99531.53
2023-01-27T05:22:49.226Z,99509.28
2023-01-27T05:25:19.948Z,99545.84
2023-01-27T05:27:50.470Z,99549.31
2023-01-27T05:30:22.782Z,99546.13
2023-01-27T05:32:53.177Z,99558.53
2023-01-27T05:35:23.832Z,99561.28
2023-01-27T05:37:54.280Z,99564.47
2023-01-27T05:40:24.821Z,99564.88
2023-01-27T05:42:55.509Z,99557.59
2023-01-27T05:45:27.719Z,99560.19
2023-01-27T05:47:58.400Z,99498.66
2023-01-27T05:50:29.040Z,99569.13
2023-01-27T05:52:59.543Z,99565.16
2023-01-27T05:55:30.214Z,99573.72
2023-01-27T05:58:00.741Z,99465.97
2023-01-27T06:00:33.005Z,99566.75
2023-01-27T06:03:03.442Z,99561.38
2023-01-27T06:05:34.018Z,99563.00
2023-01-27T06:08:04.589Z,99569.25
2023-01-27T06:10:38.044Z,99565.22
2023-01-27T06:13:08.606Z,99563.81
2023-01-27T06:15:43.624Z,99568.00
2023-01-27T06:18:14.434Z,99522.56
2023-01-27T06:20:45.522Z,99557.31
2023-01-27T06:23:17.528Z,99536.31
2023-01-27T06:25:50.736Z,99569.34
2023-01-27T06:28:28.907Z,99568.97
2023-01-27T06:31:08.709Z,99558.94
2023-01-27T06:33:39.499Z,99508.41
2023-01-27T06:36:12.623Z,99574.38
2023-01-27T06:38:43.346Z,99567.47
2023-01-27T06:41:14.049Z,99565.59
2023-01-27T06:43:44.531Z,99563.75
2023-01-27T06:46:17.525Z,99535.81
2023-01-27T06:48:48.371Z,99568.75
2023-01-27T06:51:18.989Z,99515.66
2023-01-27T06:53:49.481Z,99555.13
2023-01-27T06:56:22.543Z,99557.97
2023-01-27T06:58:53.071Z,99574.00
2023-01-27T07:01:25.159Z,99573.81
2023-01-27T07:03:55.832Z,99558.50
2023-01-27T07:06:26.193Z,99577.94
2023-01-27T07:08:56.649Z,99568.53
2023-01-27T07:11:27.135Z,99558.63
2023-01-27T07:13:57.858Z,99565.78
2023-01-27T07:16:29.947Z,99565.00
2023-01-27T07:19:00.417Z,99549.09
2023-01-27T07:21:30.923Z,99561.31
2023-01-27T07:24:01.325Z,99549.72
2023-01-27T07:26:31.777Z,99560.16
2023-01-27T07:29:02.292Z,99556.09
2023-01-27T07:31:35.819Z,99557.50
2023-01-27T07:34:06.306Z,99551.03
2023-01-27T07:36:36.777Z,99555.81
2023-01-27T07:39:07.442Z,99557.72
2023-01-27T07:41:37.904Z,99545.16
2023-01-27T07:44:08.487Z,99537.78
2023-01-27T07:46:40.522Z,99559.91
2023-01-27T07:49:11.675Z,99557.00
2023-01-27T07:51:42.101Z,99568.56
2023-01-27T07:54:12.535Z,99565.97
2023-01-27T07:56:43.020Z,99565.47
2023-01-27T07:59:13.910Z,99562.94
2023-01-27T08:01:48.196Z,99515.56
2023-01-27T08:04:19.532Z,99563.59
2023-01-27T08:06:50.068Z,99556.38
2023-01-27T08:09:21.205Z,99571.19
2023-01-27T08:11:58.201Z,99573.56
2023-01-27T08:14:28.736Z,99571.25
2023-01-27T08:17:00.809Z,99568.94
2023-01-27T08:19:31.347Z,99573.72
2023-01-27T08:22:22.193Z,99552.41
2023-01-27T08:24:53.043Z,99557.31
2023-01-27T08:27:24.171Z,99571.28
2023-01-27T08:29:54.654Z,99575.22
2023-01-27T08:32:28.435Z,99579.53
2023-01-27T08:34:58.886Z,99577.59
2023-01-27T08:37:29.494Z,99577.72
2023-01-27T08:40:00.295Z,99587.44
2023-01-27T08:42:30.830Z,99579.63
2023-01-27T08:45:04.864Z,99583.03
2023-01-27T08:47:39.090Z,99592.31
2023-01-27T08:50:11.507Z,99591.16
2023-01-27T08:52:42.387Z,99571.28
2023-01-27T08:55:14.022Z,99547.78
2023-01-27T08:57:44.887Z,99595.06
2023-01-27T09:00:18.840Z,99558.03
2023-01-27T09:02:51.757Z,99554.53
2023-01-27T09:05:27.654Z,99575.66
2023-01-27T09:09:00.494Z,99600.03
2023-01-27T09:11:31.886Z,99595.81
2023-01-27T09:14:03.264Z,99601.09
2023-01-27T09:16:34.848Z,99492.81
2023-01-27T09:19:08.063Z,99596.41
2023-01-27T09:21:39.677Z,99614.16
2023-01-27T09:24:11.289Z,99582.81
2023-01-27T09:26:42.872Z,99608.16
2023-01-27T09:29:14.439Z,99607.31
2023-01-27T09:31:45.832Z,99594.72
2023-01-27T09:34:20.498Z,99607.44
2023-01-27T09:36:57.107Z,99608.38
2023-01-27T09:39:29.896Z,99587.94
2023-01-27T09:42:24.561Z,99601.19
2023-01-27T09:45:20.164Z,99494.09
2023-01-27T09:48:43.892Z,99607.44
2023-01-27T09:51:25.384Z,99599.94
2023-01-27T09:54:15.114Z,99618.41
2023-01-27T09:56:56.537Z,99596.16
2023-01-27T09:59:55.688Z,99626.63
2023-01-27T10:02:45.963Z,99622.13
2023-01-27T10:05:35.728Z,99629.88
2023-01-27T10:08:28.122Z,99611.78
2023-01-27T10:11:13.658Z,99620.66
2023-01-27T10:13:56.221Z,99628.63
2023-01-27T10:16:45.367Z,99625.66
2023-01-27T10:19:34.742Z,99616.66
2023-01-27T10:22:18.730Z,99624.84
2023-01-27T10:25:06.535Z,99621.59
2023-01-27T10:27:41.073Z,99621.09
2023-01-27T10:30:17.447Z,99616.13
2023-01-27T10:32:54.176Z,99606.44
2023-01-27T10:35:31.931Z,99612.47
2023-01-27T10:38:14.228Z,99500.44
2023-01-27T10:40:55.649Z,99617.38
2023-01-27T10:43:36.122Z,99619.53
2023-01-27T10:46:15.610Z,99596.81
2023-01-27T10:48:52.728Z,99617.22
2023-01-27T10:51:29.803Z,99626.53
2023-01-27T10:54:07.449Z,99621.28
2023-01-27T10:56:45.738Z,99555.50
2023-01-27T10:59:29.771Z,99621.81
2023-01-27T11:02:09.071Z,99609.66
2023-01-27T11:04:46.058Z,99628.00
2023-01-27T11:07:21.282Z,99637.97
2023-01-27T11:09:58.874Z,99626.78
2023-01-27T11:12:35.432Z,99594.59
2023-01-27T11:15:21.947Z,99628.38
2023-01-27T11:18:01.274Z,99612.44
2023-01-27T11:20:36.601Z,99618.78
2023-01-27T11:23:18.628Z,99623.78
2023-01-27T11:25:57.967Z,99630.59
2023-01-27T11:28:39.642Z,99631.06
2023-01-27T11:31:23.884Z,99540.84
2023-01-27T11:34:04.749Z,99574.94
2023-01-27T11:36:39.153Z,99611.06
2023-01-27T11:39:14.997Z,99610.81
2023-01-27T11:41:50.926Z,99597.38
2023-01-27T11:44:28.708Z,99534.06
2023-01-27T11:46:59.411Z,99618.38
2023-01-27T11:49:37.961Z,99613.16
2023-01-27T11:52:17.750Z,99613.56
2023-01-27T11:54:53.277Z,99612.41
2023-01-27T11:57:26.102Z,99610.75
2023-01-27T12:00:02.988Z,99606.38
2023-01-27T12:02:39.114Z,99597.91
2023-01-27T12:05:15.352Z,99609.09
2023-01-27T12:07:52.441Z,99599.47
2023-01-27T12:10:31.392Z,99607.97
2023-01-27T12:13:06.657Z,99517.00
2023-01-27T12:15:42.406Z,99603.28
2023-01-27T12:18:18.188Z,99603.09
2023-01-27T12:20:52.443Z,99601.00
2023-01-27T12:23:27.162Z,99561.97
2023-01-27T12:26:01.497Z,99595.41
2023-01-27T12:28:38.122Z,99585.19
2023-01-27T12:31:14.983Z,99605.75
2023-01-27T12:33:55.867Z,99541.34
2023-01-27T12:36:30.116Z,99586.66
2023-01-27T12:39:04.488Z,99527.56
2023-01-27T12:41:36.848Z,99601.06
2023-01-27T12:44:18.074Z,99589.28
2023-01-27T12:47:02.480Z,99587.13
2023-01-27T12:49:38.728Z,99570.13
2023-01-27T12:52:11.550Z,99590.59
2023-01-27T12:54:44.133Z,99590.28
2023-01-27T12:57:18.381Z,99571.59
2023-01-27T12:59:53.140Z,99571.31
2023-01-27T13:02:29.611Z,99565.13
2023-01-27T13:05:11.475Z,99579.69
2023-01-27T13:07:48.379Z,99577.09
2023-01-27T13:10:24.438Z,99572.84
2023-01-27T13:12:56.883Z,99568.34
2023-01-27T13:15:30.052Z,99579.56
2023-01-27T13:18:03.524Z,99580.19
2023-01-27T13:20:43.928Z,99568.19
2023-01-27T13:23:20.793Z,99547.88
2023-01-27T13:25:56.746Z,99559.53
2023-01-27T13:28:45.989Z,99565.59
2023-01-27T13:31:30.152Z,99567.06
2023-01-27T13:34:06.354Z,99432.72
2023-01-27T13:36:43.990Z,99565.53
2023-01-27T13:39:21.494Z,99474.28
2023-01-27T13:41:57.277Z,99563.25
2023-01-27T13:44:42.409Z,99565.00
2023-01-27T13:47:21.702Z,99489.47
2023-01-27T13:50:00.765Z,99548.97
2023-01-27T13:52:31.598Z,99556.25
2023-01-27T13:55:02.395Z,99565.53
2023-01-27T13:57:53.881Z,99559.28
2023-01-27T14:04:46.586Z,99556.34
2023-01-27T14:08:22.033Z,99561.81
2023-01-27T14:14:57.703Z,99570.78
2023-01-27T14:17:57.126Z,99548.63
2023-01-27T14:20:55.173Z,99552.03
2023-01-27T14:24:09.127Z,99551.44
2023-01-27T14:26:54.242Z,99545.06
2023-01-27T14:29:51.661Z,99516.28
2023-01-27T14:33:21.906Z,99543.00
2023-01-27T14:35:59.210Z,99553.59
2023-01-27T14:38:41.264Z,99546.34
2023-01-27T14:41:30.032Z,99542.25
2023-01-27T14:45:03.232Z,99535.81
2023-01-27T14:47:47.665Z,99516.25
2023-01-27T14:50:43.723Z,99520.44
2023-01-27T14:53:44.836Z,99535.25
2023-01-27T14:56:33.788Z,99529.72
2023-01-27T15:03:22.817Z,99521.31
2023-01-27T15:06:07.194Z,99531.50
2023-01-27T15:08:49.579Z,99522.47
2023-01-27T15:11:47.063Z,99513.41
2023-01-27T15:14:42.471Z,99528.59
2023-01-27T15:17:35.397Z,99519.84
2023-01-27T15:20:33.310Z,99512.53
2023-01-27T15:23:23.330Z,99483.94
2023-01-27T15:26:00.878Z,99495.59
2023-01-27T15:28:40.727Z,99494.72
2023-01-27T15:31:11.901Z,99515.72
2023-01-27T15:33:55.979Z,99520.81
2023-01-27T15:36:37.413Z,99509.13
2023-01-27T15:39:35.688Z,99502.38
2023-01-27T15:42:15.318Z,99502.97
2023-01-27T15:45:04.278Z,99509.53
2023-01-27T15:47:37.648Z,99513.06
2023-01-27T15:50:18.351Z,99507.81
2023-01-27T15:52:52.648Z,99501.69
2023-01-27T15:55:29.379Z,99498.44
2023-01-27T15:58:13.063Z,99506.53
2023-01-27T16:00:51.608Z,99507.09
2023-01-27T16:03:29.077Z,99507.31
2023-01-27T16:06:10.600Z,99501.44
2023-01-27T16:08:46.325Z,99356.53
2023-01-27T16:11:40.836Z,99498.41
2023-01-27T16:14:47.416Z,99500.25
2023-01-27T16:17:28.806Z,99485.66
2023-01-27T16:20:08.007Z,99502.38
2023-01-27T16:22:43.195Z,99486.88
2023-01-27T16:25:28.524Z,99502.97
2023-01-27T16:28:06.049Z,99496.75
2023-01-27T16:30:43.959Z,99502.56
2023-01-27T16:33:23.139Z,99496.38
2023-01-27T16:35:59.057Z,99493.97
2023-01-27T16:38:39.663Z,99513.53
2023-01-27T16:41:22.026Z,99502.81
2023-01-27T16:43:59.458Z,99479.75
2023-01-27T16:46:35.850Z,99503.13
2023-01-27T16:49:14.711Z,99500.47
2023-01-27T16:51:45.898Z,99499.81
2023-01-27T16:54:27.809Z,99433.59
2023-01-27T16:57:01.196Z,99490.66
2023-01-27T16:59:34.658Z,99486.97
2023-01-27T17:02:08.026Z,99480.31
2023-01-27T17:04:39.744Z,99443.19
2023-01-27T17:07:14.209Z,99375.72
2023-01-27T17:09:47.581Z,99464.63
2023-01-27T17:12:32.590Z,99463.31
2023-01-27T17:15:04.973Z,99471.31
2023-01-27T17:17:37.918Z,99444.91
2023-01-27T17:20:11.052Z,99467.06
2023-01-27T17:22:44.134Z,99470.03
2023-01-27T17:25:21.226Z,99476.00
2023-01-27T17:27:54.099Z,99476.19
2023-01-27T17:30:26.417Z,99477.59
2023-01-27T17:33:00.411Z,99458.94
2023-01-27T17:35:34.081Z,99449.47
2023-01-27T17:38:20.873Z,99475.47
2023-01-27T17:40:53.582Z,99477.97
2023-01-27T17:43:33.938Z,99465.31
2023-01-27T17:46:18.611Z,99474.59
2023-01-27T17:48:55.479Z,99481.03
2023-01-27T17:51:28.709Z,99473.72
2023-01-27T17:54:00.942Z,99489.75
2023-01-27T17:56:33.934Z,99483.34
2023-01-27T17:59:13.694Z,99478.59
2023-01-27T18:01:44.864Z,99476.53
2023-01-27T18:04:15.828Z,99477.25
2023-01-27T18:06:47.145Z,99398.19
2023-01-27T18:09:21.736Z,99474.06
2023-01-27T18:11:56.959Z,99478.44
2023-01-27T18:14:30.759Z,99469.03
2023-01-27T18:17:03.609Z,99457.66
2023-01-27T18:19:35.424Z,99429.84
2023-01-27T18:22:17.165Z,99463.94
2023-01-27T18:25:00.748Z,99461.72
2023-01-27T18:27:34.245Z,99442.78
2023-01-27T18:30:16.836Z,99470.50
2023-01-27T18:32:49.369Z,99456.50
2023-01-27T18:35:27.898Z,99292.41
2023-01-27T18:38:00.778Z,99444.25
2023-01-27T18:40:33.683Z,99444.13
2023-01-27T18:43:06.551Z,99436.72
2023-01-27T18:45:39.015Z,99420.38
2023-01-27T18:48:14.812Z,99294.47
2023-01-27T18:50:54.096Z,99438.75
2023-01-27T18:53:25.317Z,99428.53
2023-01-27T18:56:14.087Z,99426.78
2023-01-27T18:58:50.378Z,99417.88
2023-01-27T19:01:26.375Z,99376.31
2023-01-27T19:03:59.036Z,99423.38
2023-01-27T19:06:29.582Z,99417.66
2023-01-27T19:09:00.238Z,99425.50
2023-01-27T19:11:32.778Z,99414.75
2023-01-27T19:14:04.976Z,99419.97
2023-01-27T19:16:40.643Z,99431.09
2023-01-27T19:19:16.293Z,99416.03
2023-01-27T19:21:46.762Z,99420.78
2023-01-27T19:24:22.876Z,99414.91
2023-01-27T19:26:54.009Z,99419.59
2023-01-27T19:29:28.995Z,99419.13
2023-01-27T19:32:01.102Z,99391.63
2023-01-27T19:34:31.706Z,99410.16
2023-01-27T19:37:03.711Z,99416.84
2023-01-27T19:39:35.772Z,99405.41
2023-01-27T19:42:06.330Z,99410.16
2023-01-27T19:44:36.877Z,99403.22
2023-01-27T19:47:14.577Z,99396.84
2023-01-27T19:49:44.990Z,99398.56
2023-01-27T19:52:15.570Z,99413.78
2023-01-27T19:54:46.079Z,99409.19
2023-01-27T19:57:20.679Z,99387.69
2023-01-27T19:59:54.869Z,99406.97
2023-01-27T20:02:28.638Z,99404.63
2023-01-27T20:05:00.581Z,99395.56
2023-01-27T20:07:31.147Z,99397.63
2023-01-27T20:10:06.680Z,99376.34
2023-01-27T20:12:37.731Z,99399.69
2023-01-27T20:15:12.790Z,99397.94
2023-01-27T20:17:45.323Z,99390.03
2023-01-27T20:20:17.319Z,99390.47
2023-01-27T20:22:48.215Z,99400.22
2023-01-27T20:25:20.654Z,99400.50
2023-01-27T20:27:52.483Z,99281.00
2023-01-27T20:30:25.233Z,99336.59
2023-01-27T20:33:00.564Z,99379.09
2023-01-27T20:35:31.505Z,99391.00
2023-01-27T20:38:03.553Z,99379.06
2023-01-27T20:40:34.386Z,99374.41
2023-01-27T20:43:05.181Z,99366.44
2023-01-27T20:45:36.310Z,99358.06
2023-01-27T20:48:08.791Z,99359.59
2023-01-27T20:50:42.244Z,99335.78
2023-01-27T20:53:15.056Z,99348.09
2023-01-27T20:55:46.639Z,99344.84
2023-01-27T20:58:17.129Z,99347.78
2023-01-27T21:00:47.727Z,99346.56
2023-01-27T21:03:19.929Z,99348.91
2023-01-27T21:05:50.423Z,99342.19
2023-01-27T21:08:20.932Z,99342.81
2023-01-27T21:10:55.752Z,99341.63
2023-01-27T21:13:27.559Z,99343.97
2023-01-27T21:15:58.630Z,99337.00
2023-01-27T21:18:30.668Z,99350.13
2023-01-27T21:21:05.336Z,99353.00
2023-01-27T21:23:36.831Z,99358.09
2023-01-27T21:26:10.152Z,99357.38
2023-01-27T21:28:40.707Z,99353.59
2023-01-27T21:31:12.996Z,99331.44
2023-01-27T21:33:46.631Z,99347.50
2023-01-27T21:36:17.014Z,99359.13
2023-01-27T21:38:47.523Z,99361.19
2023-01-27T21:41:39.979Z,99312.09
2023-01-27T21:44:35.434Z,99364.84
2023-01-27T21:47:09.349Z,99329.72
2023-01-27T21:49:55.944Z,99370.78
2023-01-27T21:52:26.725Z,99370.72
2023-01-27T21:54:57.192Z,99357.13
2023-01-27T21:57:27.539Z,99371.22
2023-01-27T21:59:57.957Z,99353.59
2023-01-27T22:02:30.174Z,99354.38
2023-01-27T22:05:02.207Z,99343.31
2023-01-27T22:07:50.454Z,99334.56
2023-01-27T22:10:24.056Z,99347.75
2023-01-27T22:12:59.146Z,99345.16
2023-01-27T22:15:32.219Z,99348.06
2023-01-27T22:18:02.974Z,99327.97
2023-01-27T22:20:35.721Z,99334.38
2023-01-27T22:23:06.526Z,99348.63
2023-01-27T22:25:37.079Z,99344.50
2023-01-27T22:28:07.679Z,99347.38
2023-01-27T22:30:40.800Z,99345.69
2023-01-27T22:33:11.821Z,99346.00
2023-01-27T22:35:43.770Z,99357.97
2023-01-27T22:38:14.463Z,99355.63
2023-01-27T22:40:44.923Z,99362.38
2023-01-27T22:43:17.325Z,99348.06
2023-01-27T22:45:48.022Z,99356.81
2023-01-27T22:48:18.510Z,99351.56
2023-01-27T22:50:50.643Z,99365.97
2023-01-27T22:53:21.175Z,99353.03
2023-01-27T22:55:59.581Z,99341.06
2023-01-27T22:58:30.566Z,99234.44
2023-01-27T23:01:01.118Z,99355.47
2023-01-27T23:03:31.507Z,99351.84
2023-01-27T23:06:07.764Z,99297.88
2023-01-27T23:08:38.237Z,99344.69
2023-01-27T23:11:09.487Z,99346.94
2023-01-27T23:13:42.528Z,99330.22
2023-01-27T23:16:13.153Z,99349.19
2023-01-27T23:18:43.630Z,99339.06
2023-01-27T23:21:16.610Z,99348.81
2023-01-27T23:23:47.125Z,99333.22
2023-01-27T23:26:17.529Z,99326.44
2023-01-27T23:28:48.043Z,99324.00
2023-01-27T23:31:18.476Z,99329.00
2023-01-27T23:33:52.829Z,99319.97
2023-01-27T23:36:32.313Z,99318.00
2023-01-27T23:39:02.641Z,99318.03
2023-01-27T23:41:32.989Z,99309.19
2023-01-27T23:44:03.464Z,99319.72
2023-01-27T23:46:33.970Z,99311.41
2023-01-27T23:49:04.469Z,99301.38
2023-01-27T23:51:36.600Z,99298.69
2023-01-27T23:54:07.410Z,99300.47
2023-01-27T23:56:38.043Z,99303.16
2023-01-27T23:59:08.451Z,99306.50
